sensor_id;sensor_type;location;lat;lon;timestamp;pressure;altitude;pressure_sealevel;temperature;humidity
48846;BME280;34665;51.886;5.436;2023-04-02T00:02:47;100917.94;;;14.52;100.00
48846;BME280;34665;51.886;5.436;2023-04-02T00:07:55;100931.97;;;14.35;100.00
48846;BME280;34665;51.886;5.436;2023-04-02T00:13:00;100940.19;;;14.72;100.00
48846;BME280;34665;51.886;5.436;2023-04-02T00:15:26;100946.63;;;14.65;100.00
48846;BME280;34665;51.886;5.436;2023-04-02T00:17:52;100948.78;;;14.56;100.00
48846;BME280;34665;51.886;5.436;2023-04-02T00:20:17;100942.13;;;14.58;100.00
48846;BME280;34665;51.886;5.436;2023-04-02T00:22:44;100950.53;;;14.94;100.00
48846;BME280;34665;51.886;5.436;2023-04-02T00:25:11;100952.81;;;14.72;100.00
48846;BME280;34665;51.886;5.436;2023-04-02T00:27:37;100947.63;;;14.70;100.00
48846;BME280;34665;51.886;5.436;2023-04-02T00:30:03;100955.88;;;14.75;100.00
48846;BME280;34665;51.886;5.436;2023-04-02T00:32:32;100959.78;;;14.22;100.00
48846;BME280;34665;51.886;5.436;2023-04-02T00:34:59;100964.94;;;14.56;100.00
48846;BME280;34665;51.886;5.436;2023-04-02T00:37:29;100976.41;;;14.76;100.00
48846;BME280;34665;51.886;5.436;2023-04-02T00:40:24;100980.56;;;14.40;100.00
48846;BME280;34665;51.886;5.436;2023-04-02T00:42:48;100986.41;;;14.30;100.00
48846;BME280;34665;51.886;5.436;2023-04-02T00:45:16;100986.34;;;14.44;100.00
48846;BME280;34665;51.886;5.436;2023-04-02T00:47:44;100999.91;;;14.56;100.00
48846;BME280;34665;51.886;5.436;2023-04-02T00:52:40;100995.03;;;14.46;100.00
48846;BME280;34665;51.886;5.436;2023-04-02T00:55:07;101009.94;;;14.42;100.00
48846;BME280;34665;51.886;5.436;2023-04-02T00:57:37;101015.38;;;14.35;100.00
48846;BME280;34665;51.886;5.436;2023-04-02T01:00:13;101014.28;;;14.43;100.00
48846;BME280;34665;51.886;5.436;2023-04-02T01:02:43;101035.44;;;14.65;100.00
48846;BME280;34665;51.886;5.436;2023-04-02T01:05:28;101028.38;;;14.70;100.00
48846;BME280;34665;51.886;5.436;2023-04-02T01:08:42;101031.06;;;14.70;100.00
48846;BME280;34665;51.886;5.436;2023-04-02T01:18:57;101053.13;;;13.49;100.00
48846;BME280;34665;51.886;5.436;2023-04-02T01:23:54;101060.06;;;14.36;100.00
48846;BME280;34665;51.886;5.436;2023-04-02T01:29:00;101057.72;;;14.08;100.00
48846;BME280;34665;51.886;5.436;2023-04-02T01:31:27;101063.97;;;13.88;100.00
48846;BME280;34665;51.886;5.436;2023-04-02T01:33:53;101061.84;;;14.10;100.00
48846;BME280;34665;51.886;5.436;2023-04-02T01:36:22;101074.72;;;13.88;100.00
48846;BME280;34665;51.886;5.436;2023-04-02T01:39:02;101069.41;;;14.27;100.00
48846;BME280;34665;51.886;5.436;2023-04-02T01:41:32;101080.50;;;13.98;100.00
48846;BME280;34665;51.886;5.436;2023-04-02T01:44:05;101076.53;;;14.08;100.00
48846;BME280;34665;51.886;5.436;2023-04-02T01:46:33;101085.22;;;14.03;100.00
48846;BME280;34665;51.886;5.436;2023-04-02T01:49:03;101095.78;;;14.04;100.00
48846;BME280;34665;51.886;5.436;2023-04-02T01:51:34;101094.56;;;13.94;100.00
48846;BME280;34665;51.886;5.436;2023-04-02T01:54:03;101096.94;;;13.56;100.00
48846;BME280;34665;51.886;5.436;2023-04-02T01:56:30;101107.16;;;14.07;100.00
48846;BME280;34665;51.886;5.436;2023-04-02T01:58:56;101116.88;;;14.01;100.00
48846;BME280;34665;51.886;5.436;2023-04-02T02:01:24;101126.16;;;14.05;100.00
48846;BME280;34665;51.886;5.436;2023-04-02T02:03:51;101126.09;;;14.32;100.00
48846;BME280;34665;51.886;5.436;2023-04-02T02:06:17;101128.06;;;14.04;100.00
48846;BME280;34665;51.886;5.436;2023-04-02T02:11:11;101136.75;;;13.93;100.00
48846;BME280;34665;51.886;5.436;2023-04-02T02:13:38;101133.88;;;13.81;100.00
48846;BME280;34665;51.886;5.436;2023-04-02T02:16:05;101145.28;;;13.76;100.00
48846;BME280;34665;51.886;5.436;2023-04-02T02:18:32;101135.97;;;13.72;100.00
48846;BME280;34665;51.886;5.436;2023-04-02T02:20:57;101147.13;;;13.76;100.00
48846;BME280;34665;51.886;5.436;2023-04-02T02:23:23;101159.13;;;13.80;100.00
48846;BME280;34665;51.886;5.436;2023-04-02T02:25:51;101159.53;;;13.70;100.00
48846;BME280;34665;51.886;5.436;2023-04-02T02:28:32;101170.28;;;13.70;100.00
48846;BME280;34665;51.886;5.436;2023-04-02T02:31:08;101171.13;;;13.84;100.00
48846;BME280;34665;51.886;5.436;2023-04-02T02:33:43;101178.34;;;13.70;100.00
48846;BME280;34665;51.886;5.436;2023-04-02T02:36:15;101177.13;;;13.59;100.00
48846;BME280;34665;51.886;5.436;2023-04-02T02:38:46;101184.56;;;13.71;100.00
48846;BME280;34665;51.886;5.436;2023-04-02T02:41:40;101181.66;;;13.32;100.00
48846;BME280;34665;51.886;5.436;2023-04-02T02:46:38;101195.97;;;12.70;100.00
48846;BME280;34665;51.886;5.436;2023-04-02T02:49:06;101195.72;;;12.65;100.00
48846;BME280;34665;51.886;5.436;2023-04-02T02:54:26;101205.78;;;13.18;100.00
48846;BME280;34665;51.886;5.436;2023-04-02T02:56:56;101221.56;;;13.48;100.00
48846;BME280;34665;51.886;5.436;2023-04-02T02:59:24;101227.56;;;13.71;100.00
48846;BME280;34665;51.886;5.436;2023-04-02T03:01:51;101227.59;;;13.84;100.00
48846;BME280;34665;51.886;5.436;2023-04-02T03:04:22;101232.25;;;13.28;100.00
48846;BME280;34665;51.886;5.436;2023-04-02T03:06:51;101228.13;;;13.39;100.00
48846;BME280;34665;51.886;5.436;2023-04-02T03:14:42;101244.22;;;13.32;100.00
48846;BME280;34665;51.886;5.436;2023-04-02T03:17:20;101253.50;;;13.16;100.00
48846;BME280;34665;51.886;5.436;2023-04-02T03:19:51;101259.78;;;12.82;100.00
48846;BME280;34665;51.886;5.436;2023-04-02T03:22:25;101252.56;;;12.82;100.00
48846;BME280;34665;51.886;5.436;2023-04-02T03:24:57;101266.28;;;13.08;100.00
48846;BME280;34665;51.886;5.436;2023-04-02T03:27:30;101267.28;;;13.00;100.00
48846;BME280;34665;51.886;5.436;2023-04-02T03:32:42;101280.19;;;12.69;100.00
48846;BME280;34665;51.886;5.436;2023-04-02T03:35:30;101288.75;;;13.00;100.00
48846;BME280;34665;51.886;5.436;2023-04-02T03:38:03;101298.09;;;13.11;100.00
48846;BME280;34665;51.886;5.436;2023-04-02T03:40:32;101308.84;;;13.04;100.00
48846;BME280;34665;51.886;5.436;2023-04-02T03:45:30;101319.56;;;13.11;100.00
48846;BME280;34665;51.886;5.436;2023-04-02T03:52:59;101336.91;;;12.66;100.00
48846;BME280;34665;51.886;5.436;2023-04-02T03:55:27;101338.19;;;13.12;100.00
48846;BME280;34665;51.886;5.436;2023-04-02T04:00:48;101346.25;;;12.77;100.00
48846;BME280;34665;51.886;5.436;2023-04-02T04:05:48;101356.00;;;13.20;100.00
48846;BME280;34665;51.886;5.436;2023-04-02T04:08:17;101353.03;;;13.08;100.00
48846;BME280;34665;51.886;5.436;2023-04-02T04:10:43;101365.84;;;13.13;100.00
48846;BME280;34665;51.886;5.436;2023-04-02T04:13:14;101367.63;;;12.92;100.00
48846;BME280;34665;51.886;5.436;2023-04-02T04:15:41;101374.81;;;13.27;100.00
48846;BME280;34665;51.886;5.436;2023-04-02T04:23:25;101386.84;;;12.67;100.00
48846;BME280;34665;51.886;5.436;2023-04-02T04:26:00;101392.56;;;12.86;100.00
48846;BME280;34665;51.886;5.436;2023-04-02T04:28:43;101398.13;;;12.84;100.00
48846;BME280;34665;51.886;5.436;2023-04-02T04:31:22;101405.16;;;12.85;100.00
48846;BME280;34665;51.886;5.436;2023-04-02T04:33:53;101409.38;;;12.38;100.00
48846;BME280;34665;51.886;5.436;2023-04-02T04:36:28;101411.16;;;12.59;100.00
48846;BME280;34665;51.886;5.436;2023-04-02T04:39:07;101423.06;;;12.78;100.00
48846;BME280;34665;51.886;5.436;2023-04-02T04:41:42;101431.13;;;12.78;100.00
48846;BME280;34665;51.886;5.436;2023-04-02T04:44:16;101431.31;;;13.05;100.00
48846;BME280;34665;51.886;5.436;2023-04-02T04:47:01;101439.94;;;13.00;100.00
48846;BME280;34665;51.886;5.436;2023-04-02T04:49:32;101448.25;;;13.05;100.00
48846;BME280;34665;51.886;5.436;2023-04-02T04:52:09;101457.38;;;12.83;100.00
48846;BME280;34665;51.886;5.436;2023-04-02T04:54:39;101460.94;;;12.61;100.00
48846;BME280;34665;51.886;5.436;2023-04-02T04:57:15;101463.91;;;13.02;100.00
48846;BME280;34665;51.886;5.436;2023-04-02T04:59:46;101469.00;;;12.61;100.00
48846;BME280;34665;51.886;5.436;2023-04-02T05:04:42;101478.44;;;12.57;100.00
48846;BME280;34665;51.886;5.436;2023-04-02T05:07:24;101489.81;;;12.59;100.00
48846;BME280;34665;51.886;5.436;2023-04-02T05:09:57;101498.44;;;12.55;100.00
48846;BME280;34665;51.886;5.436;2023-04-02T05:12:40;101502.63;;;12.86;100.00
48846;BME280;34665;51.886;5.436;2023-04-02T05:15:29;101518.94;;;12.84;100.00
48846;BME280;34665;51.886;5.436;2023-04-02T05:20:34;101527.00;;;12.62;100.00
48846;BME280;34665;51.886;5.436;2023-04-02T05:25:34;101527.41;;;12.44;100.00
48846;BME280;34665;51.886;5.436;2023-04-02T05:28:10;101534.09;;;12.48;100.00
48846;BME280;34665;51.886;5.436;2023-04-02T05:30:48;101542.31;;;12.47;100.00
48846;BME280;34665;51.886;5.436;2023-04-02T05:33:28;101550.59;;;12.30;100.00
48846;BME280;34665;51.886;5.436;2023-04-02T05:38:37;101559.03;;;12.27;100.00
48846;BME280;34665;51.886;5.436;2023-04-02T05:43:33;101555.19;;;11.85;100.00
48846;BME280;34665;51.886;5.436;2023-04-02T05:46:03;101565.63;;;11.95;100.00
48846;BME280;34665;51.886;5.436;2023-04-02T05:48:39;101578.75;;;12.04;100.00
48846;BME280;34665;51.886;5.436;2023-04-02T05:51:18;101580.88;;;12.09;100.00
48846;BME280;34665;51.886;5.436;2023-04-02T05:53:46;101586.22;;;12.24;100.00
48846;BME280;34665;51.886;5.436;2023-04-02T05:59:21;101592.03;;;11.98;100.00
48846;BME280;34665;51.886;5.436;2023-04-02T06:01:56;101600.06;;;12.43;100.00
48846;BME280;34665;51.886;5.436;2023-04-02T06:04:38;101609.03;;;12.35;100.00
48846;BME280;34665;51.886;5.436;2023-04-02T06:07:12;101630.00;;;12.61;100.00
48846;BME280;34665;51.886;5.436;2023-04-02T06:09:45;101625.63;;;12.24;100.00
48846;BME280;34665;51.886;5.436;2023-04-02T06:12:18;101635.78;;;11.98;100.00
48846;BME280;34665;51.886;5.436;2023-04-02T06:14:48;101635.31;;;11.95;100.00
48846;BME280;34665;51.886;5.436;2023-04-02T06:17:15;101642.47;;;12.02;100.00
48846;BME280;34665;51.886;5.436;2023-04-02T06:19:42;101653.38;;;12.16;100.00
48846;BME280;34665;51.886;5.436;2023-04-02T06:22:09;101663.34;;;12.37;100.00
48846;BME280;34665;51.886;5.436;2023-04-02T06:24:41;101668.13;;;12.57;100.00
48846;BME280;34665;51.886;5.436;2023-04-02T06:27:09;101669.81;;;12.43;100.00
48846;BME280;34665;51.886;5.436;2023-04-02T06:29:38;101671.78;;;12.04;100.00
48846;BME280;34665;51.886;5.436;2023-04-02T06:32:11;101672.03;;;12.39;100.00
48846;BME280;34665;51.886;5.436;2023-04-02T06:34:40;101686.59;;;12.67;100.00
48846;BME280;34665;51.886;5.436;2023-04-02T06:39:59;101687.28;;;12.09;100.00
48846;BME280;34665;51.886;5.436;2023-04-02T06:42:29;101689.50;;;12.50;100.00
48846;BME280;34665;51.886;5.436;2023-04-02T06:45:18;101709.94;;;12.51;100.00
48846;BME280;34665;51.886;5.436;2023-04-02T06:47:52;101709.94;;;12.88;99.63
48846;BME280;34665;51.886;5.436;2023-04-02T06:50:36;101705.50;;;12.13;100.00
48846;BME280;34665;51.886;5.436;2023-04-02T06:53:04;101722.34;;;12.37;99.59
48846;BME280;34665;51.886;5.436;2023-04-02T06:58:04;101727.97;;;12.72;100.00
48846;BME280;34665;51.886;5.436;2023-04-02T07:00:39;101739.44;;;12.66;100.00
48846;BME280;34665;51.886;5.436;2023-04-02T07:03:14;101740.47;;;12.35;100.00
48846;BME280;34665;51.886;5.436;2023-04-02T07:05:40;101739.94;;;12.40;100.00
48846;BME280;34665;51.886;5.436;2023-04-02T07:08:05;101761.06;;;12.80;100.00
48846;BME280;34665;51.886;5.436;2023-04-02T07:10:32;101767.00;;;12.60;100.00
48846;BME280;34665;51.886;5.436;2023-04-02T07:12:58;101772.28;;;12.53;100.00
48846;BME280;34665;51.886;5.436;2023-04-02T07:15:23;101777.91;;;12.13;100.00
48846;BME280;34665;51.886;5.436;2023-04-02T07:17:49;101786.16;;;12.72;100.00
48846;BME280;34665;51.886;5.436;2023-04-02T07:20:23;101788.84;;;12.42;100.00
48846;BME280;34665;51.886;5.436;2023-04-02T07:22:49;101795.50;;;12.61;98.95
48846;BME280;34665;51.886;5.436;2023-04-02T07:25:14;101795.13;;;12.19;100.00
48846;BME280;34665;51.886;5.436;2023-04-02T07:27:40;101811.00;;;12.21;100.00
48846;BME280;34665;51.886;5.436;2023-04-02T07:30:05;101809.38;;;11.96;100.00
48846;BME280;34665;51.886;5.436;2023-04-02T07:32:31;101815.75;;;11.72;100.00
48846;BME280;34665;51.886;5.436;2023-04-02T07:34:57;101828.38;;;11.40;100.00
48846;BME280;34665;51.886;5.436;2023-04-02T07:37:22;101828.59;;;11.53;100.00
48846;BME280;34665;51.886;5.436;2023-04-02T07:39:48;101834.41;;;11.88;100.00
48846;BME280;34665;51.886;5.436;2023-04-02T07:42:13;101833.81;;;11.78;100.00
48846;BME280;34665;51.886;5.436;2023-04-02T07:44:39;101835.47;;;12.26;100.00
48846;BME280;34665;51.886;5.436;2023-04-02T07:47:04;101834.91;;;12.30;100.00
48846;BME280;34665;51.886;5.436;2023-04-02T07:49:30;101840.59;;;11.89;100.00
48846;BME280;34665;51.886;5.436;2023-04-02T07:51:56;101844.38;;;12.03;100.00
48846;BME280;34665;51.886;5.436;2023-04-02T07:54:21;101850.84;;;12.47;99.10
48846;BME280;34665;51.886;5.436;2023-04-02T07:56:47;101857.41;;;12.06;100.00
48846;BME280;34665;51.886;5.436;2023-04-02T07:59:12;101860.06;;;12.44;96.55
48846;BME280;34665;51.886;5.436;2023-04-02T08:01:38;101859.38;;;12.51;100.00
48846;BME280;34665;51.886;5.436;2023-04-02T08:04:04;101863.94;;;12.27;100.00
48846;BME280;34665;51.886;5.436;2023-04-02T08:06:31;101868.00;;;12.23;100.00
48846;BME280;34665;51.886;5.436;2023-04-02T08:08:57;101866.44;;;12.28;95.53
48846;BME280;34665;51.886;5.436;2023-04-02T08:11:23;101866.31;;;12.90;93.94
48846;BME280;34665;51.886;5.436;2023-04-02T08:13:48;101867.53;;;12.72;100.00
48846;BME280;34665;51.886;5.436;2023-04-02T08:16:13;101874.72;;;12.87;93.37
48846;BME280;34665;51.886;5.436;2023-04-02T08:18:38;101878.06;;;13.19;93.79
48846;BME280;34665;51.886;5.436;2023-04-02T08:21:05;101884.50;;;13.40;95.76
48846;BME280;34665;51.886;5.436;2023-04-02T08:23:30;101896.06;;;13.40;92.52
48846;BME280;34665;51.886;5.436;2023-04-02T08:25:56;101891.13;;;13.07;98.39
48846;BME280;34665;51.886;5.436;2023-04-02T08:28:22;101898.78;;;13.25;96.53
48846;BME280;34665;51.886;5.436;2023-04-02T08:30:47;101910.72;;;13.53;95.25
48846;BME280;34665;51.886;5.436;2023-04-02T08:33:13;101926.31;;;13.79;89.84
48846;BME280;34665;51.886;5.436;2023-04-02T08:35:39;101927.06;;;13.73;90.01
48846;BME280;34665;51.886;5.436;2023-04-02T08:38:05;101927.47;;;13.70;88.01
48846;BME280;34665;51.886;5.436;2023-04-02T08:40:38;101936.06;;;14.02;89.17
48846;BME280;34665;51.886;5.436;2023-04-02T08:43:22;101938.97;;;14.00;94.98
48846;BME280;34665;51.886;5.436;2023-04-02T08:48:14;101947.44;;;13.82;84.76
48846;BME280;34665;51.886;5.436;2023-04-02T08:50:41;101955.03;;;13.94;91.11
48846;BME280;34665;51.886;5.436;2023-04-02T08:56:03;101958.44;;;13.20;90.93
48846;BME280;34665;51.886;5.436;2023-04-02T08:58:41;101973.91;;;13.33;93.36
48846;BME280;34665;51.886;5.436;2023-04-02T09:01:09;101974.28;;;13.60;93.18
48846;BME280;34665;51.886;5.436;2023-04-02T09:03:46;101972.06;;;13.49;89.47
48846;BME280;34665;51.886;5.436;2023-04-02T09:06:14;101978.88;;;13.82;84.52
48846;BME280;34665;51.886;5.436;2023-04-02T09:08:42;101992.66;;;13.94;83.57
48846;BME280;34665;51.886;5.436;2023-04-02T09:13:34;101985.22;;;13.59;84.50
48846;BME280;34665;51.886;5.436;2023-04-02T09:16:07;101999.81;;;14.23;82.20
48846;BME280;34665;51.886;5.436;2023-04-02T09:18:34;102002.47;;;13.65;90.30
48846;BME280;34665;51.886;5.436;2023-04-02T09:21:27;102007.13;;;13.93;88.46
48846;BME280;34665;51.886;5.436;2023-04-02T09:23:48;102020.41;;;14.16;85.37
48846;BME280;34665;51.886;5.436;2023-04-02T09:26:21;102017.53;;;14.17;94.93
48846;BME280;34665;51.886;5.436;2023-04-02T09:28:48;102033.47;;;14.34;85.40
48846;BME280;34665;51.886;5.436;2023-04-02T09:31:18;102033.69;;;13.66;86.09
48846;BME280;34665;51.886;5.436;2023-04-02T09:33:46;102031.09;;;13.57;86.06
48846;BME280;34665;51.886;5.436;2023-04-02T09:36:33;102037.31;;;13.73;86.61
48846;BME280;34665;51.886;5.436;2023-04-02T09:39:01;102039.16;;;13.87;86.04
48846;BME280;34665;51.886;5.436;2023-04-02T09:41:30;102038.88;;;13.52;98.38
48846;BME280;34665;51.886;5.436;2023-04-02T09:44:38;102044.34;;;13.59;89.57
48846;BME280;34665;51.886;5.436;2023-04-02T09:46:55;102056.94;;;13.88;87.91
48846;BME280;34665;51.886;5.436;2023-04-02T09:49:25;102067.22;;;13.85;83.96
48846;BME280;34665;51.886;5.436;2023-04-02T09:54:35;102073.97;;;14.11;84.08
48846;BME280;34665;51.886;5.436;2023-04-02T09:57:15;102073.81;;;13.97;86.91
48846;BME280;34665;51.886;5.436;2023-04-02T09:59:41;102075.38;;;13.91;81.91
48846;BME280;34665;51.886;5.436;2023-04-02T10:02:16;102086.16;;;13.61;82.55
48846;BME280;34665;51.886;5.436;2023-04-02T10:04:46;102091.50;;;14.07;82.82
48846;BME280;34665;51.886;5.436;2023-04-02T10:07:34;102096.81;;;14.37;81.26
48846;BME280;34665;51.886;5.436;2023-04-02T10:10:02;102100.72;;;13.97;81.88
48846;BME280;34665;51.886;5.436;2023-04-02T10:12:29;102106.97;;;14.19;81.00
48846;BME280;34665;51.886;5.436;2023-04-02T10:14:59;102102.88;;;14.24;80.10
48846;BME280;34665;51.886;5.436;2023-04-02T10:17:27;102103.34;;;14.27;78.88
48846;BME280;34665;51.886;5.436;2023-04-02T10:19:59;102104.97;;;14.43;82.46
48846;BME280;34665;51.886;5.436;2023-04-02T10:22:26;102104.06;;;14.36;81.78
48846;BME280;34665;51.886;5.436;2023-04-02T10:24:52;102108.41;;;14.74;76.34
48846;BME280;34665;51.886;5.436;2023-04-02T10:27:35;102117.00;;;15.06;74.90
48846;BME280;34665;51.886;5.436;2023-04-02T10:32:33;102116.75;;;14.42;75.01
48846;BME280;34665;51.886;5.436;2023-04-02T10:47:36;102149.03;;;15.80;72.96
48846;BME280;34665;51.886;5.436;2023-04-02T10:50:26;102148.25;;;16.97;66.46
48846;BME280;34665;51.886;5.436;2023-04-02T10:55:24;102164.06;;;20.17;56.51
48846;BME280;34665;51.886;5.436;2023-04-02T10:57:50;102159.22;;;19.82;56.38
48846;BME280;34665;51.886;5.436;2023-04-02T11:00:20;102157.09;;;21.01;52.14
48846;BME280;34665;51.886;5.436;2023-04-02T11:03:30;102161.00;;;22.59;49.96
48846;BME280;34665;51.886;5.436;2023-04-02T11:05:42;102165.03;;;22.85;51.41
48846;BME280;34665;51.886;5.436;2023-04-02T11:10:36;102179.50;;;24.66;42.22
48846;BME280;34665;51.886;5.436;2023-04-02T11:15:28;102189.47;;;25.10;41.20
48846;BME280;34665;51.886;5.436;2023-04-02T11:17:54;102182.69;;;25.50;44.15
48846;BME280;34665;51.886;5.436;2023-04-02T11:23:11;102194.13;;;26.80;38.35
48846;BME280;34665;51.886;5.436;2023-04-02T11:25:37;102204.59;;;27.24;39.03
48846;BME280;34665;51.886;5.436;2023-04-02T11:28:12;102198.78;;;26.74;35.63
48846;BME280;34665;51.886;5.436;2023-04-02T11:30:38;102207.09;;;24.14;41.68
48846;BME280;34665;51.886;5.436;2023-04-02T11:33:48;102207.94;;;24.65;39.32
48846;BME280;34665;51.886;5.436;2023-04-02T11:35:50;102195.81;;;24.83;39.17
48846;BME280;34665;51.886;5.436;2023-04-02T11:40:47;102208.16;;;25.51;38.42
48846;BME280;34665;51.886;5.436;2023-04-02T11:46:02;102217.22;;;27.15;35.78
48846;BME280;34665;51.886;5.436;2023-04-02T11:48:31;102219.72;;;27.11;35.82
48846;BME280;34665;51.886;5.436;2023-04-02T11:51:00;102220.47;;;27.43;34.15
48846;BME280;34665;51.886;5.436;2023-04-02T11:58:45;102232.94;;;29.71;30.88
48846;BME280;34665;51.886;5.436;2023-04-02T12:11:37;102257.78;;;30.58;29.98
48846;BME280;34665;51.886;5.436;2023-04-02T12:14:28;102248.16;;;30.55;34.40
48846;BME280;34665;51.886;5.436;2023-04-02T12:16:51;102267.88;;;30.05;33.53
48846;BME280;34665;51.886;5.436;2023-04-02T12:19:17;102258.72;;;30.72;28.26
48846;BME280;34665;51.886;5.436;2023-04-02T12:21:46;102262.41;;;31.20;29.24
48846;BME280;34665;51.886;5.436;2023-04-02T12:24:20;102261.63;;;31.14;27.08
48846;BME280;34665;51.886;5.436;2023-04-02T12:26:45;102263.63;;;32.03;27.23
48846;BME280;34665;51.886;5.436;2023-04-02T12:29:15;102262.09;;;31.97;26.58
48846;BME280;34665;51.886;5.436;2023-04-02T12:31:42;102268.13;;;30.71;30.57
48846;BME280;34665;51.886;5.436;2023-04-02T12:34:12;102268.31;;;31.60;27.01
48846;BME280;34665;51.886;5.436;2023-04-02T12:36:38;102279.72;;;32.43;28.39
48846;BME280;34665;51.886;5.436;2023-04-02T12:39:12;102274.81;;;31.98;27.41
48846;BME280;34665;51.886;5.436;2023-04-02T12:41:40;102277.06;;;31.35;26.27
48846;BME280;34665;51.886;5.436;2023-04-02T12:44:06;102269.47;;;31.73;28.39
48846;BME280;34665;51.886;5.436;2023-04-02T12:46:37;102271.53;;;31.82;28.23
48846;BME280;34665;51.886;5.436;2023-04-02T12:49:04;102265.56;;;31.60;29.77
48846;BME280;34665;51.886;5.436;2023-04-02T12:51:31;102270.25;;;31.74;29.58
48846;BME280;34665;51.886;5.436;2023-04-02T12:53:57;102275.44;;;31.81;29.50
48846;BME280;34665;51.886;5.436;2023-04-02T12:56:22;102277.97;;;31.77;28.76
48846;BME280;34665;51.886;5.436;2023-04-02T12:58:58;102280.91;;;31.67;26.22
48846;BME280;34665;51.886;5.436;2023-04-02T13:01:25;102280.56;;;31.87;26.29
48846;BME280;34665;51.886;5.436;2023-04-02T13:04:05;102279.28;;;31.66;26.86
48846;BME280;34665;51.886;5.436;2023-04-02T13:06:32;102296.72;;;31.94;25.78
48846;BME280;34665;51.886;5.436;2023-04-02T13:08:58;102282.59;;;31.96;25.19
48846;BME280;34665;51.886;5.436;2023-04-02T13:11:36;102286.88;;;32.02;25.77
48846;BME280;34665;51.886;5.436;2023-04-02T13:14:03;102279.41;;;31.74;30.23
48846;BME280;34665;51.886;5.436;2023-04-02T13:16:35;102286.19;;;32.10;28.23
48846;BME280;34665;51.886;5.436;2023-04-02T13:19:11;102298.13;;;32.47;26.88
48846;BME280;34665;51.886;5.436;2023-04-02T13:21:44;102292.50;;;32.39;24.56
48846;BME280;34665;51.886;5.436;2023-04-02T13:24:17;102281.84;;;32.83;24.32
48846;BME280;34665;51.886;5.436;2023-04-02T13:26:42;102290.75;;;33.16;24.24
48846;BME280;34665;51.886;5.436;2023-04-02T13:31:34;102292.13;;;33.05;25.45
48846;BME280;34665;51.886;5.436;2023-04-02T13:33:59;102291.88;;;33.15;24.20
48846;BME280;34665;51.886;5.436;2023-04-02T13:36:25;102295.78;;;32.92;25.76
48846;BME280;34665;51.886;5.436;2023-04-02T13:38:53;102297.16;;;32.66;25.55
48846;BME280;34665;51.886;5.436;2023-04-02T13:41:23;102291.56;;;32.94;23.14
48846;BME280;34665;51.886;5.436;2023-04-02T13:43:50;102306.66;;;32.51;23.10
48846;BME280;34665;51.886;5.436;2023-04-02T13:46:20;102302.56;;;33.31;26.07
48846;BME280;34665;51.886;5.436;2023-04-02T13:48:47;102300.84;;;33.75;24.45
48846;BME280;34665;51.886;5.436;2023-04-02T13:51:17;102299.31;;;33.60;25.87
48846;BME280;34665;51.886;5.436;2023-04-02T13:53:43;102309.00;;;33.72;23.65
48846;BME280;34665;51.886;5.436;2023-04-02T13:56:09;102297.22;;;32.89;24.21
48846;BME280;34665;51.886;5.436;2023-04-02T13:58:35;102303.16;;;32.82;23.10
48846;BME280;34665;51.886;5.436;2023-04-02T14:01:00;102309.69;;;33.23;22.68
48846;BME280;34665;51.886;5.436;2023-04-02T14:03:25;102315.81;;;33.66;22.59
48846;BME280;34665;51.886;5.436;2023-04-02T14:06:00;102309.44;;;33.11;23.98
48846;BME280;34665;51.886;5.436;2023-04-02T14:15:59;102327.41;;;33.68;22.35
48846;BME280;34665;51.886;5.436;2023-04-02T14:18:37;102331.41;;;33.84;22.13
48846;BME280;34665;51.886;5.436;2023-04-02T14:21:13;102327.19;;;34.45;22.18
48846;BME280;34665;51.886;5.436;2023-04-02T14:26:49;102328.63;;;34.25;22.04
48846;BME280;34665;51.886;5.436;2023-04-02T14:41:55;102350.03;;;33.52;23.73
48846;BME280;34665;51.886;5.436;2023-04-02T14:44:22;102352.13;;;34.18;23.46
48846;BME280;34665;51.886;5.436;2023-04-02T14:46:49;102341.06;;;33.55;23.51
48846;BME280;34665;51.886;5.436;2023-04-02T14:49:53;102352.25;;;34.13;21.92
48846;BME280;34665;51.886;5.436;2023-04-02T14:52:15;102347.66;;;34.58;21.71
48846;BME280;34665;51.886;5.436;2023-04-02T14:54:47;102353.41;;;34.97;21.45
48846;BME280;34665;51.886;5.436;2023-04-02T14:57:22;102353.22;;;34.58;22.19
48846;BME280;34665;51.886;5.436;2023-04-02T14:59:59;102342.03;;;33.91;21.98
48846;BME280;34665;51.886;5.436;2023-04-02T15:04:58;102358.06;;;34.43;21.33
48846;BME280;34665;51.886;5.436;2023-04-02T15:07:26;102353.31;;;34.26;23.92
48846;BME280;34665;51.886;5.436;2023-04-02T15:10:06;102369.06;;;34.08;22.62
48846;BME280;34665;51.886;5.436;2023-04-02T15:12:34;102368.34;;;34.43;21.22
48846;BME280;34665;51.886;5.436;2023-04-02T15:15:06;102371.06;;;34.16;22.92
48846;BME280;34665;51.886;5.436;2023-04-02T15:17:34;102373.97;;;34.02;22.44
48846;BME280;34665;51.886;5.436;2023-04-02T15:20:04;102362.84;;;33.71;21.86
48846;BME280;34665;51.886;5.436;2023-04-02T15:22:45;102371.38;;;33.83;21.57
48846;BME280;34665;51.886;5.436;2023-04-02T15:25:22;102372.13;;;34.47;21.48
48846;BME280;34665;51.886;5.436;2023-04-02T15:27:59;102362.13;;;34.28;25.64
48846;BME280;34665;51.886;5.436;2023-04-02T15:32:52;102371.84;;;33.77;21.79
48846;BME280;34665;51.886;5.436;2023-04-02T15:35:28;102375.19;;;33.42;21.67
48846;BME280;34665;51.886;5.436;2023-04-02T15:38:15;102375.78;;;33.84;20.84
48846;BME280;34665;51.886;5.436;2023-04-02T15:43:22;102364.81;;;33.25;22.26
48846;BME280;34665;51.886;5.436;2023-04-02T15:45:50;102367.91;;;33.00;22.35
48846;BME280;34665;51.886;5.436;2023-04-02T15:48:21;102369.72;;;33.28;21.83
48846;BME280;34665;51.886;5.436;2023-04-02T15:50:53;102377.84;;;32.87;22.17